Time;durP1;ratioP1;P1;durP2;ratioP2;P2;SDS_P1;SDS_P2;PMS_P1;PMS_P2;Temp;Humidity;BMP_temperature;BMP_pressure;BME280_temperature;BME280_humidity;BME280_pressure;Samples;Min_cycle;Max_cycle;Signal;HPM_P1;HPM_P2
2021/04/16 00:01:38;;;;;;;2.17;1.20;;;20.50;39.20;;;;;;5083529;28;20031;-66
2021/04/16 00:04:03;;;;;;;2.50;1.20;;;20.50;39.20;;;;;;5085345;28;20040;-65
2021/04/16 00:06:29;;;;;;;3.92;1.30;;;20.50;39.20;;;;;;5080888;28;20392;-62
2021/04/16 00:08:55;;;;;;;2.67;0.90;;;20.50;39.30;;;;;;5081097;28;20028;-65
2021/04/16 00:11:25;;;;;;;1.08;0.90;;;20.50;39.20;;;;;;5082931;28;20020;-66
2021/04/16 00:13:51;;;;;;;1.38;1.05;;;20.50;39.20;;;;;;5081437;28;20032;-66
2021/04/16 00:16:19;;;;;;;1.30;0.90;;;20.60;39.30;;;;;;5081795;28;20103;-64
2021/04/16 00:18:45;;;;;;;1.98;1.20;;;20.50;39.20;;;;;;5081808;28;20025;-66
2021/04/16 00:21:11;;;;;;;2.17;1.08;;;20.50;39.20;;;;;;5083037;28;20035;-66
2021/04/16 00:23:37;;;;;;;2.25;1.13;;;20.50;39.20;;;;;;5081968;28;20017;-65
2021/04/16 00:26:03;;;;;;;1.33;1.10;;;20.50;39.20;;;;;;5082719;28;20050;-66
2021/04/16 00:28:30;;;;;;;2.25;1.10;;;20.50;39.20;;;;;;5080177;28;20031;-63
2021/04/16 00:30:57;;;;;;;1.30;0.90;;;20.50;39.10;;;;;;5081881;28;20441;-66
2021/04/16 00:33:23;;;;;;;2.22;1.00;;;20.50;39.10;;;;;;5083349;28;20074;-64
2021/04/16 00:35:52;;;;;;;1.85;1.45;;;20.50;39.10;;;;;;5080492;28;20051;-65
2021/04/16 00:38:22;;;;;;;1.33;1.08;;;20.50;39.10;;;;;;5082119;28;20020;-65
2021/04/16 00:40:50;;;;;;;1.70;1.10;;;20.50;39.10;;;;;;5080949;28;20016;-67
2021/04/16 00:43:19;;;;;;;2.55;1.05;;;20.50;39.10;;;;;;5081623;28;20036;-65
2021/04/16 00:45:45;;;;;;;2.97;1.40;;;20.50;39.00;;;;;;5080656;28;20024;-66
2021/04/16 00:48:32;;;;;;;2.50;0.90;;;20.50;39.00;;;;;;5083700;28;20028;-66
2021/04/16 00:51:02;;;;;;;1.42;1.02;;;20.50;39.10;;;;;;5080729;28;20081;-66
2021/04/16 00:53:28;;;;;;;1.05;0.85;;;20.50;39.00;;;;;;5086323;28;20454;-63
2021/04/16 00:55:55;;;;;;;1.13;0.93;;;20.60;39.10;;;;;;5082831;28;20054;-66
2021/04/16 00:58:28;;;;;;;1.48;0.90;;;20.50;39.00;;;;;;5080862;28;20028;-66
2021/04/16 01:00:55;;;;;;;1.55;0.95;;;20.50;39.00;;;;;;5083079;28;20046;-66
2021/04/16 01:03:21;;;;;;;2.65;1.10;;;20.50;39.00;;;;;;5085621;28;20045;-65
2021/04/16 01:05:57;;;;;;;2.05;1.10;;;20.50;39.00;;;;;;5082633;28;20044;-65
2021/04/16 01:08:23;;;;;;;1.50;1.00;;;20.50;39.00;;;;;;5081901;28;20060;-64
2021/04/16 01:11:01;;;;;;;1.92;0.88;;;20.60;39.10;;;;;;5079629;28;20682;-64
2021/04/16 01:13:27;;;;;;;1.52;0.98;;;20.50;39.00;;;;;;5080991;28;20421;-64
2021/04/16 01:16:01;;;;;;;1.45;1.00;;;20.60;39.10;;;;;;5082214;28;20060;-65
2021/04/16 01:18:33;;;;;;;2.33;1.00;;;20.60;39.00;;;;;;5081442;28;20024;-66
2021/04/16 01:21:10;;;;;;;2.42;1.48;;;20.50;38.90;;;;;;5081196;28;20036;-65
2021/04/16 01:23:47;;;;;;;1.23;0.95;;;20.60;39.00;;;;;;5081326;28;20032;-64
2021/04/16 01:26:19;;;;;;;1.08;0.80;;;20.60;39.00;;;;;;5080963;28;20028;-66
2021/04/16 01:28:48;;;;;;;1.70;1.00;;;20.50;38.90;;;;;;5081156;28;20070;-64
2021/04/16 01:31:17;;;;;;;2.00;0.80;;;20.60;39.00;;;;;;5084882;28;20025;-65
2021/04/16 01:33:49;;;;;;;1.98;0.90;;;20.50;38.90;;;;;;5083398;28;20027;-65
2021/04/16 01:36:27;;;;;;;1.83;1.23;;;20.50;38.90;;;;;;5084561;28;20051;-65
2021/04/16 01:38:55;;;;;;;1.13;0.90;;;20.60;38.90;;;;;;5085645;28;20051;-65
2021/04/16 01:41:22;;;;;;;1.38;0.88;;;20.60;38.90;;;;;;5084212;28;20028;-66
2021/04/16 01:43:55;;;;;;;1.02;0.80;;;20.60;38.90;;;;;;5085551;28;20044;-65
2021/04/16 01:46:22;;;;;;;1.95;1.00;;;20.60;38.90;;;;;;5087134;28;20462;-65
2021/04/16 01:48:53;;;;;;;1.02;0.80;;;20.60;38.90;;;;;;5086169;28;20121;-65
2021/04/16 01:51:31;;;;;;;1.20;0.73;;;20.60;38.90;;;;;;5084448;28;20386;-66
2021/04/16 01:54:35;;;;;;;1.42;1.08;;;20.60;38.80;;;;;;5086219;28;20028;-64
2021/04/16 01:57:05;;;;;;;1.45;0.75;;;20.60;38.80;;;;;;5088623;28;20036;-65
2021/04/16 01:59:35;;;;;;;3.38;0.90;;;20.60;38.80;;;;;;5084930;28;20481;-64
2021/04/16 02:02:04;;;;;;;1.25;0.70;;;20.50;38.80;;;;;;5085039;28;20488;-68
2021/04/16 02:04:30;;;;;;;2.08;0.95;;;20.60;38.80;;;;;;5086614;28;20044;-64
2021/04/16 02:06:56;;;;;;;3.22;1.17;;;20.60;38.80;;;;;;5084645;28;20047;-68
2021/04/16 02:09:33;;;;;;;1.38;0.80;;;20.60;38.80;;;;;;5084089;28;20099;-66
2021/04/16 02:11:59;;;;;;;2.15;0.80;;;20.60;38.80;;;;;;5085954;28;20067;-67
2021/04/16 02:14:27;;;;;;;1.38;0.85;;;20.60;38.80;;;;;;5083563;28;20063;-67
2021/04/16 02:17:06;;;;;;;3.97;1.00;;;20.60;38.80;;;;;;5086630;28;20110;-65
2021/04/16 02:19:32;;;;;;;1.23;0.75;;;20.60;38.80;;;;;;5087542;28;20024;-64
2021/04/16 02:22:01;;;;;;;1.65;1.20;;;20.60;38.80;;;;;;5082894;28;20023;-68
2021/04/16 02:24:27;;;;;;;1.08;0.80;;;20.60;38.80;;;;;;5083489;28;20031;-67
2021/04/16 02:26:53;;;;;;;1.38;1.10;;;20.60;38.80;;;;;;5084009;28;20048;-65
2021/04/16 02:29:20;;;;;;;1.58;0.88;;;20.60;38.70;;;;;;5084174;28;20024;-65
2021/04/16 02:31:46;;;;;;;2.03;0.95;;;20.60;38.70;;;;;;5084964;28;20031;-66
2021/04/16 02:34:14;;;;;;;1.27;0.80;;;20.60;38.70;;;;;;5083848;28;20031;-66
2021/04/16 02:36:40;;;;;;;2.65;1.40;;;20.60;38.80;;;;;;5084269;28;20043;-66
2021/04/16 02:39:07;;;;;;;0.70;0.65;;;20.60;38.70;;;;;;5082298;28;20020;-65
2021/04/16 02:41:36;;;;;;;2.28;0.80;;;20.60;38.70;;;;;;5082754;28;20034;-63
2021/04/16 02:44:04;;;;;;;1.10;0.70;;;20.60;38.70;;;;;;5084323;28;20394;-65
2021/04/16 02:46:30;;;;;;;1.88;0.77;;;20.60;38.80;;;;;;5085676;28;20033;-66
2021/04/16 02:48:55;;;;;;;1.17;0.65;;;20.60;38.70;;;;;;5083977;28;20074;-67
2021/04/16 02:51:21;;;;;;;3.13;1.00;;;20.60;38.80;;;;;;5084807;28;20393;-64
2021/04/16 02:53:47;;;;;;;1.23;0.95;;;20.60;38.70;;;;;;5081873;28;20035;-64
2021/04/16 02:56:12;;;;;;;0.90;0.77;;;20.60;38.70;;;;;;5083829;28;20032;-64
2021/04/16 02:58:38;;;;;;;1.23;0.82;;;20.60;38.70;;;;;;5085183;28;20036;-66
2021/04/16 03:01:04;;;;;;;1.40;1.00;;;20.60;38.80;;;;;;5084353;28;20034;-66
2021/04/16 03:03:30;;;;;;;1.73;1.00;;;20.60;38.80;;;;;;5085190;28;20044;-65
2021/04/16 03:05:59;;;;;;;1.88;1.00;;;20.60;38.80;;;;;;5084306;28;20032;-68
2021/04/16 03:08:24;;;;;;;4.25;1.10;;;20.60;38.80;;;;;;5089135;28;20157;-64
2021/04/16 03:10:50;;;;;;;1.52;1.10;;;20.60;38.70;;;;;;5083989;28;20512;-64
2021/04/16 03:13:20;;;;;;;1.27;0.80;;;20.50;38.70;;;;;;5082976;28;20458;-65
2021/04/16 03:15:49;;;;;;;1.30;1.08;;;20.60;38.70;;;;;;5082096;28;20024;-66
2021/04/16 03:18:15;;;;;;;1.60;1.20;;;20.60;38.70;;;;;;5084084;28;20028;-65
2021/04/16 03:20:41;;;;;;;1.73;0.75;;;20.60;38.70;;;;;;5083185;28;20024;-66
2021/04/16 03:23:06;;;;;;;0.85;0.60;;;20.60;38.70;;;;;;5088089;28;20061;-65
2021/04/16 03:25:32;;;;;;;1.80;0.98;;;20.60;38.80;;;;;;5085310;28;20465;-63
2021/04/16 03:27:58;;;;;;;1.23;0.98;;;20.60;38.80;;;;;;5081704;28;20488;-64
2021/04/16 03:30:26;;;;;;;1.60;0.93;;;20.60;38.70;;;;;;5085218;28;20373;-65
2021/04/16 03:32:51;;;;;;;1.60;0.93;;;20.60;38.80;;;;;;5082429;28;20024;-64
2021/04/16 03:35:18;;;;;;;1.00;0.70;;;20.60;38.80;;;;;;5085154;28;20350;-65
2021/04/16 03:37:47;;;;;;;1.55;0.95;;;20.60;38.70;;;;;;5082664;28;20436;-63
2021/04/16 03:40:18;;;;;;;1.60;1.02;;;20.60;38.60;;;;;;5081468;28;20029;-65
2021/04/16 03:42:43;;;;;;;1.83;0.90;;;20.60;38.70;;;;;;5082377;28;20028;-65
2021/04/16 03:45:10;;;;;;;1.35;0.80;;;20.60;38.60;;;;;;5081352;28;20066;-66
2021/04/16 03:47:38;;;;;;;1.58;1.00;;;20.60;38.60;;;;;;5081738;28;20036;-64
2021/04/16 03:50:04;;;;;;;1.40;0.80;;;20.60;38.70;;;;;;5081507;28;20020;-68
2021/04/16 03:52:33;;;;;;;1.13;0.80;;;20.60;39.30;;;;;;5082991;28;20027;-67
2021/04/16 03:54:58;;;;;;;1.00;0.75;;;20.60;38.70;;;;;;5083454;28;20028;-66
2021/04/16 03:57:24;;;;;;;0.73;0.60;;;20.60;38.60;;;;;;5086031;28;20036;-64
2021/04/16 03:59:50;;;;;;;1.25;0.80;;;20.60;38.60;;;;;;5085881;28;20029;-66
2021/04/16 04:02:16;;;;;;;1.23;0.90;;;20.60;38.60;;;;;;5087784;28;20024;-65
2021/04/16 04:04:41;;;;;;;1.50;0.73;;;20.60;38.60;;;;;;5086308;28;20054;-66
2021/04/16 04:07:07;;;;;;;1.52;0.80;;;20.60;38.70;;;;;;5080737;28;20027;-64
2021/04/16 04:09:34;;;;;;;1.08;0.75;;;20.60;38.60;;;;;;5085400;28;20043;-65
2021/04/16 04:12:00;;;;;;;3.53;1.10;;;20.60;38.60;;;;;;5087008;28;20027;-65
2021/04/16 04:14:26;;;;;;;1.50;0.80;;;20.60;38.60;;;;;;5082146;28;20469;-65
2021/04/16 04:16:57;;;;;;;2.10;0.90;;;20.60;38.60;;;;;;5085736;28;20106;-68
2021/04/16 04:19:26;;;;;;;1.10;0.80;;;20.60;38.60;;;;;;5086885;28;20462;-68
2021/04/16 04:21:52;;;;;;;1.80;1.10;;;20.60;38.60;;;;;;5083816;28;20024;-66
2021/04/16 04:24:19;;;;;;;1.27;0.80;;;20.60;39.30;;;;;;5079274;28;20028;-65
2021/04/16 04:26:45;;;;;;;1.40;0.68;;;20.60;38.70;;;;;;5082308;28;20047;-64
2021/04/16 04:29:11;;;;;;;1.08;0.70;;;20.60;38.60;;;;;;5086379;28;20024;-66
2021/04/16 04:31:48;;;;;;;2.22;0.80;;;20.60;38.60;;;;;;5085492;28;20039;-63
2021/04/16 04:34:23;;;;;;;1.35;0.80;;;20.60;38.60;;;;;;5087462;28;20067;-65
2021/04/16 04:36:51;;;;;;;0.80;0.70;;;20.60;38.60;;;;;;5082158;28;20036;-64
2021/04/16 04:39:18;;;;;;;0.90;0.80;;;20.60;38.60;;;;;;5079548;28;20077;-65
2021/04/16 04:41:44;;;;;;;1.00;0.70;;;20.60;38.50;;;;;;5080380;28;20032;-65
2021/04/16 04:44:10;;;;;;;1.30;0.88;;;20.60;39.20;;;;;;5085267;28;20024;-65
2021/04/16 04:46:37;;;;;;;1.30;1.02;;;20.60;38.50;;;;;;5084220;28;20398;-63
2021/04/16 04:49:07;;;;;;;1.48;0.90;;;20.60;38.50;;;;;;5086842;28;20035;-65
2021/04/16 04:51:34;;;;;;;1.73;0.95;;;20.60;38.50;;;;;;5084945;28;20047;-65
2021/04/16 04:54:03;;;;;;;1.02;0.70;;;20.60;38.50;;;;;;5086406;28;20022;-65
2021/04/16 04:56:29;;;;;;;2.50;1.00;;;20.60;38.50;;;;;;5078377;28;20468;-65
2021/04/16 04:58:55;;;;;;;1.90;0.88;;;20.60;38.50;;;;;;5077248;28;20098;-65
2021/04/16 05:01:20;;;;;;;2.28;1.10;;;20.60;38.50;;;;;;5082449;28;20024;-65
2021/04/16 05:03:49;;;;;;;0.77;0.57;;;20.60;38.50;;;;;;5081285;28;20059;-65
2021/04/16 05:06:14;;;;;;;1.80;1.00;;;20.60;38.50;;;;;;5088999;28;20077;-64
2021/04/16 05:08:40;;;;;;;1.45;0.82;;;20.70;38.80;;;;;;5079878;28;20033;-66
2021/04/16 05:11:08;;;;;;;2.33;0.90;;;20.70;39.00;;;;;;5084554;28;20016;-66
2021/04/16 05:13:36;;;;;;;1.30;0.85;;;20.70;39.30;;;;;;5085960;28;20110;-65
2021/04/16 05:16:02;;;;;;;2.33;1.23;;;20.70;39.40;;;;;;5084899;28;20028;-64
2021/04/16 05:18:28;;;;;;;1.55;0.80;;;20.70;39.50;;;;;;5091932;28;20404;-65
2021/04/16 05:20:54;;;;;;;4.53;1.70;;;20.70;39.60;;;;;;5083623;28;20029;-64
2021/04/16 05:23:20;;;;;;;4.47;1.85;;;20.50;36.70;;;;;;5087664;28;20519;-67
2021/04/16 05:25:45;;;;;;;4.43;2.45;;;20.30;32.30;;;;;;5080545;28;20040;-64
2021/04/16 05:28:11;;;;;;;3.95;2.13;;;20.20;33.30;;;;;;5092002;28;20029;-67
2021/04/16 05:30:40;;;;;;;4.38;2.80;;;20.10;31.80;;;;;;5094942;28;20028;-64
2021/04/16 05:33:05;;;;;;;6.20;2.78;;;20.10;31.70;;;;;;5094993;28;20032;-67
2021/04/16 05:35:31;;;;;;;6.13;2.47;;;20.10;31.40;;;;;;5094946;28;20077;-66
2021/04/16 05:37:57;;;;;;;3.40;2.45;;;20.10;32.10;;;;;;5094435;28;20028;-67
2021/04/16 05:40:25;;;;;;;6.28;2.92;;;20.00;31.20;;;;;;5095500;28;20430;-67
2021/04/16 05:42:51;;;;;;;3.53;2.30;;;20.00;30.00;;;;;;5094529;28;20373;-68
2021/04/16 05:45:20;;;;;;;9.77;2.60;;;20.00;29.80;;;;;;5093637;28;20039;-73
2021/04/16 05:47:49;;;;;;;5.10;2.53;;;20.00;29.70;;;;;;5093138;28;20055;-67
2021/04/16 05:50:15;;;;;;;3.60;2.10;;;19.90;30.70;;;;;;5094663;28;20035;-66
2021/04/16 05:52:41;;;;;;;4.97;3.17;;;19.90;30.60;;;;;;5093944;28;20385;-65
2021/04/16 05:55:10;;;;;;;7.68;2.42;;;19.90;30.50;;;;;;5094739;28;20027;-67
2021/04/16 05:57:39;;;;;;;9.25;2.45;;;19.80;31.10;;;;;;5094598;28;20028;-65
2021/04/16 06:00:09;;;;;;;8.75;2.00;;;19.90;32.70;;;;;;5094633;28;20027;-68
2021/04/16 06:02:38;;;;;;;8.95;2.30;;;20.10;35.30;;;;;;5093114;28;20024;-65
2021/04/16 06:05:08;;;;;;;12.98;3.17;;;20.10;36.40;;;;;;5093096;28;20036;-68
2021/04/16 06:07:35;;;;;;;11.45;2.13;;;20.20;36.80;;;;;;5093295;28;20047;-70
2021/04/16 06:10:00;;;;;;;8.65;2.03;;;20.20;37.00;;;;;;5092223;28;20052;-68
2021/04/16 06:12:26;;;;;;;14.40;2.30;;;20.30;37.60;;;;;;5092671;28;20055;-69
2021/04/16 06:14:53;;;;;;;6.35;2.25;;;20.30;37.80;;;;;;5090634;28;20035;-67
2021/04/16 06:17:20;;;;;;;13.88;2.28;;;20.30;38.00;;;;;;5092927;28;20488;-70
2021/04/16 06:19:50;;;;;;;6.10;1.92;;;20.30;38.20;;;;;;5092736;28;20024;-70
2021/04/16 06:22:18;;;;;;;12.55;2.83;;;20.30;38.20;;;;;;5093345;28;20345;-69
2021/04/16 06:24:44;;;;;;;8.15;1.92;;;20.30;38.40;;;;;;5081897;28;20029;-67
2021/04/16 06:27:13;;;;;;;10.25;3.60;;;20.30;38.50;;;;;;5093224;28;20042;-70
2021/04/16 06:29:39;;;;;;;8.80;2.78;;;20.30;38.40;;;;;;5093193;28;20381;-66
2021/04/16 06:32:06;;;;;;;9.60;2.60;;;20.40;38.50;;;;;;5092835;28;20024;-70
2021/04/16 06:34:31;;;;;;;9.02;2.38;;;20.40;38.50;;;;;;5093360;28;20103;-69
2021/04/16 06:36:57;;;;;;;12.35;2.30;;;20.40;38.50;;;;;;5092198;28;20116;-70
2021/04/16 06:39:23;;;;;;;8.00;2.00;;;20.40;38.50;;;;;;5093246;28;20024;-70
2021/04/16 06:41:50;;;;;;;7.90;2.05;;;20.40;38.60;;;;;;5091696;28;20036;-70
2021/04/16 06:44:28;;;;;;;8.90;2.00;;;20.40;38.60;;;;;;5093157;28;20032;-70
2021/04/16 06:47:15;;;;;;;5.90;1.85;;;20.40;38.70;;;;;;5091347;28;20036;-70
2021/04/16 06:49:41;;;;;;;6.72;1.80;;;20.40;38.60;;;;;;5091950;28;20385;-66
2021/04/16 06:52:23;;;;;;;6.75;2.15;;;20.40;39.30;;;;;;5092474;28;20366;-72
2021/04/16 06:54:52;;;;;;;5.20;1.73;;;20.40;38.70;;;;;;5090433;28;20028;-72
2021/04/16 06:57:59;;;;;;;4.97;1.52;;;20.40;38.80;;;;;;5091978;28;20054;-70
2021/04/16 07:00:48;;;;;;;7.47;1.88;;;20.50;39.00;;;;;;5073165;28;20074;-70
2021/04/16 07:03:39;;;;;;;9.10;2.10;;;20.40;38.90;;;;;;5069517;28;642776;-69
2021/04/16 07:06:31;;;;;;;8.52;1.95;;;20.40;38.90;;;;;;5083383;28;20139;-69
2021/04/16 07:09:15;;;;;;;5.35;1.80;;;20.50;39.00;;;;;;5092817;28;20051;-70
2021/04/16 07:11:53;;;;;;;6.70;1.55;;;20.50;39.00;;;;;;5092635;28;20039;-66
2021/04/16 07:14:32;;;;;;;6.28;1.30;;;20.50;39.10;;;;;;5093146;28;20036;-69
2021/04/16 07:16:57;;;;;;;8.90;1.98;;;20.50;39.10;;;;;;5092211;28;20032;-71
2021/04/16 07:19:26;;;;;;;4.40;1.30;;;20.40;39.10;;;;;;5093535;28;20111;-70
2021/04/16 07:22:00;;;;;;;4.03;1.58;;;20.50;39.20;;;;;;5092046;28;20416;-69
2021/04/16 07:24:26;;;;;;;5.93;1.33;;;20.50;39.10;;;;;;5093331;28;20021;-69
2021/04/16 07:26:58;;;;;;;5.15;1.25;;;20.50;39.20;;;;;;5091193;28;20044;-70
2021/04/16 07:29:47;;;;;;;3.72;1.73;;;20.50;39.20;;;;;;5092863;28;20085;-70
2021/04/16 07:32:18;;;;;;;3.45;1.25;;;20.50;39.20;;;;;;5093000;28;20051;-70
2021/04/16 07:34:47;;;;;;;7.30;1.73;;;20.50;39.20;;;;;;5092159;28;20059;-69
2021/04/16 07:37:18;;;;;;;7.28;1.65;;;20.50;39.10;;;;;;5092743;28;20036;-70
2021/04/16 07:40:05;;;;;;;8.15;1.98;;;20.50;39.20;;;;;;5091966;28;20031;-68
2021/04/16 07:42:49;;;;;;;6.53;2.28;;;20.50;39.10;;;;;;5093109;28;20020;-70
2021/04/16 07:45:24;;;;;;;4.60;1.33;;;20.60;39.20;;;;;;5092646;28;20024;-70
2021/04/16 07:48:10;;;;;;;5.40;1.85;;;20.60;39.30;;;;;;5091561;28;20032;-69
2021/04/16 07:50:55;;;;;;;4.10;1.40;;;20.60;39.20;;;;;;5092371;28;20036;-70
2021/04/16 07:53:42;;;;;;;4.18;1.13;;;20.60;39.30;;;;;;5092113;28;20108;-70
2021/04/16 07:56:18;;;;;;;4.00;1.30;;;20.60;39.30;;;;;;5091883;28;20039;-70
2021/04/16 07:59:05;;;;;;;2.78;1.15;;;20.60;39.20;;;;;;5091587;28;20990;-66
2021/04/16 08:01:34;;;;;;;4.07;1.20;;;20.60;39.20;;;;;;5092474;28;20436;-68
2021/04/16 08:04:04;;;;;;;3.38;1.35;;;20.60;39.30;;;;;;5091460;28;20048;-69
2021/04/16 08:06:42;;;;;;;5.53;1.35;;;20.60;39.20;;;;;;5091445;28;20123;-69
2021/04/16 08:09:25;;;;;;;3.08;1.35;;;20.60;39.30;;;;;;5091994;28;20111;-70
2021/04/16 08:12:15;;;;;;;4.07;1.25;;;20.60;39.20;;;;;;5091270;28;20038;-69
2021/04/16 08:14:43;;;;;;;4.25;1.65;;;20.60;39.20;;;;;;5091919;28;20118;-65
2021/04/16 08:17:17;;;;;;;3.28;1.27;;;20.60;39.30;;;;;;5091774;28;20032;-70
2021/04/16 08:19:44;;;;;;;2.78;1.00;;;20.60;39.30;;;;;;5091551;28;20028;-66
2021/04/16 08:22:10;;;;;;;2.25;1.10;;;20.60;39.30;;;;;;5090764;28;20035;-70
2021/04/16 08:24:55;;;;;;;3.42;1.67;;;20.60;39.30;;;;;;5091891;28;20024;-70
2021/04/16 08:27:43;;;;;;;1.88;0.85;;;20.60;39.30;;;;;;5092029;28;20032;-70
2021/04/16 08:30:48;;;;;;;2.83;1.30;;;20.60;39.30;;;;;;5090842;28;20032;-68
2021/04/16 08:33:25;;;;;;;2.85;1.15;;;20.60;39.30;;;;;;5088910;28;20082;-70
2021/04/16 08:36:06;;;;;;;3.95;1.20;;;20.60;39.30;;;;;;5090632;28;20115;-71
2021/04/16 08:38:44;;;;;;;5.68;1.67;;;20.60;39.30;;;;;;5085129;28;20035;-69
2021/04/16 08:41:11;;;;;;;2.50;1.20;;;20.60;39.30;;;;;;5091898;28;20035;-69
2021/04/16 08:44:06;;;;;;;2.55;1.02;;;20.60;39.30;;;;;;5091720;28;20420;-69
2021/04/16 08:46:37;;;;;;;2.50;1.90;;;20.60;39.30;;;;;;5089126;28;20489;-70
2021/04/16 08:49:10;;;;;;;2.67;1.20;;;20.60;39.30;;;;;;5090436;28;20590;-70
2021/04/16 08:51:46;;;;;;;2.05;0.98;;;20.60;39.30;;;;;;5091835;28;20099;-69
2021/04/16 08:54:35;;;;;;;2.65;1.33;;;20.70;39.40;;;;;;5091952;28;20012;-70
2021/04/16 08:57:18;;;;;;;2.33;1.08;;;20.60;39.40;;;;;;5089484;28;20035;-69
2021/04/16 09:00:04;;;;;;;1.85;1.02;;;20.60;39.30;;;;;;5090075;28;20119;-66
2021/04/16 09:02:44;;;;;;;1.95;1.00;;;20.70;39.30;;;;;;5090628;28;20495;-70
2021/04/16 09:05:15;;;;;;;1.63;0.90;;;20.70;39.40;;;;;;5091622;28;20036;-70
2021/04/16 09:07:45;;;;;;;2.85;1.00;;;20.70;39.50;;;;;;5091385;28;20066;-69
2021/04/16 09:10:14;;;;;;;3.05;0.80;;;20.70;39.50;;;;;;5090828;28;20119;-69
2021/04/16 09:12:39;;;;;;;2.35;0.98;;;20.70;39.50;;;;;;5091271;28;20034;-69
2021/04/16 09:15:25;;;;;;;2.63;0.90;;;20.70;39.60;;;;;;5090369;28;20024;-69
2021/04/16 09:17:54;;;;;;;2.40;0.98;;;20.70;39.60;;;;;;5071846;28;20119;-70
2021/04/16 09:20:22;;;;;;;1.92;0.95;;;20.70;39.60;;;;;;5091583;28;20033;-70
2021/04/16 09:22:50;;;;;;;1.52;1.05;;;20.70;39.60;;;;;;5090243;28;20025;-69
2021/04/16 09:25:50;;;;;;;1.58;0.80;;;20.70;39.60;;;;;;5091233;28;20081;-69
2021/04/16 09:28:21;;;;;;;1.80;1.00;;;20.70;40.30;;;;;;5071347;28;20436;-69
2021/04/16 09:30:49;;;;;;;2.13;1.10;;;20.70;39.60;;;;;;5080988;28;20517;-66
2021/04/16 09:33:21;;;;;;;2.92;1.63;;;20.70;39.70;;;;;;5091363;28;20028;-70
2021/04/16 09:36:07;;;;;;;1.77;0.95;;;20.70;39.70;;;;;;5089367;28;20028;-65
2021/04/16 09:38:36;;;;;;;1.63;0.90;;;20.70;39.70;;;;;;5091028;28;20465;-69
2021/04/16 09:41:20;;;;;;;2.17;1.00;;;20.70;39.70;;;;;;5090769;28;20473;-69
2021/04/16 09:44:00;;;;;;;2.00;0.98;;;20.70;39.80;;;;;;5090661;28;20110;-66
2021/04/16 09:46:31;;;;;;;1.48;0.77;;;20.70;39.70;;;;;;5091148;28;20040;-69
2021/04/16 09:49:04;;;;;;;1.23;0.80;;;20.70;39.70;;;;;;5090656;28;20111;-70
2021/04/16 09:51:32;;;;;;;1.38;0.65;;;20.70;39.70;;;;;;5094208;28;20032;-69
2021/04/16 09:54:13;;;;;;;1.48;0.90;;;20.70;39.70;;;;;;5094056;28;20051;-68
2021/04/16 09:57:01;;;;;;;1.15;0.85;;;20.70;39.70;;;;;;5094381;28;20036;-70
2021/04/16 09:59:30;;;;;;;2.08;1.00;;;20.70;39.70;;;;;;5094879;28;20039;-69
2021/04/16 10:02:14;;;;;;;1.73;1.15;;;20.70;39.70;;;;;;5094024;28;20039;-73
2021/04/16 10:04:54;;;;;;;1.92;0.80;;;20.70;39.70;;;;;;5094748;28;20048;-70
2021/04/16 10:07:23;;;;;;;1.13;0.70;;;20.80;39.70;;;;;;5094460;28;20031;-67
2021/04/16 10:09:49;;;;;;;2.28;0.90;;;20.80;39.90;;;;;;5092768;28;20028;-64
2021/04/16 10:12:41;;;;;;;1.65;0.80;;;20.80;39.80;;;;;;5091867;28;20123;-72
2021/04/16 10:15:25;;;;;;;2.15;0.90;;;20.80;39.80;;;;;;5090968;28;20043;-67
2021/04/16 10:18:00;;;;;;;2.60;0.80;;;20.90;40.00;;;;;;5093735;28;20051;-64
2021/04/16 10:20:29;;;;;;;1.13;1.02;;;20.90;39.90;;;;;;5094397;28;20031;-65
2021/04/16 10:23:05;;;;;;;2.40;0.90;;;20.90;39.80;;;;;;5093165;28;20043;-64
2021/04/16 12:38:57;;;;;;;3.20;0.85;;;21.30;39.10;;;;;;5071527;28;20065;-76
2021/04/16 12:41:24;;;;;;;3.90;0.80;;;21.30;39.50;;;;;;5084375;28;20031;-69
2021/04/16 12:43:51;;;;;;;4.55;1.02;;;21.20;39.50;;;;;;5091781;28;20028;-68
2021/04/16 12:46:23;;;;;;;3.72;1.17;;;21.20;39.80;;;;;;5091218;28;20043;-64
2021/04/16 12:48:49;;;;;;;2.72;0.80;;;21.20;38.70;;;;;;5091811;28;20376;-67
2021/04/16 12:51:16;;;;;;;1.52;0.70;;;21.20;39.90;;;;;;5089838;28;20130;-64
2021/04/16 12:53:41;;;;;;;1.77;0.70;;;21.20;40.10;;;;;;5091704;28;20037;-67
2021/04/16 12:56:11;;;;;;;9.38;1.40;;;21.20;40.40;;;;;;5090372;28;20448;-66
2021/04/16 12:58:40;;;;;;;4.07;0.90;;;21.20;40.40;;;;;;5091504;28;20544;-62
2021/04/16 13:01:07;;;;;;;3.45;0.70;;;21.30;40.60;;;;;;5090564;28;20461;-61
2021/04/16 13:03:39;;;;;;;4.43;0.80;;;21.30;41.00;;;;;;5091404;28;20393;-63
2021/04/16 13:06:12;;;;;;;3.03;0.93;;;21.20;40.80;;;;;;5090150;28;20032;-60
2021/04/16 13:08:37;;;;;;;1.85;0.68;;;21.30;40.80;;;;;;5089320;28;20039;-60
2021/04/16 13:11:03;;;;;;;2.63;0.70;;;21.30;40.70;;;;;;5090642;28;20024;-62
2021/04/16 13:13:29;;;;;;;2.60;0.88;;;21.20;40.70;;;;;;5091660;28;20465;-63
2021/04/16 13:15:55;;;;;;;4.82;0.70;;;21.20;40.70;;;;;;5090690;28;20051;-61
2021/04/16 13:18:30;;;;;;;1.38;0.73;;;21.20;40.70;;;;;;5090165;28;20028;-63
2021/04/16 13:20:56;;;;;;;1.05;0.50;;;21.20;40.60;;;;;;5090445;28;20431;-63
2021/04/16 13:23:21;;;;;;;8.82;1.55;;;21.20;40.60;;;;;;5091369;28;20020;-61
2021/04/16 13:25:47;;;;;;;2.92;0.65;;;21.30;40.60;;;;;;5092980;28;20028;-61
2021/04/16 13:28:13;;;;;;;2.03;1.00;;;21.30;40.40;;;;;;5093136;28;20262;-64
2021/04/16 13:30:40;;;;;;;4.88;0.70;;;21.30;40.50;;;;;;5095187;28;20032;-63
2021/04/16 13:33:14;;;;;;;2.20;0.70;;;21.30;40.40;;;;;;5094375;28;20024;-62
2021/04/16 13:35:55;;;;;;;5.43;0.80;;;21.30;40.30;;;;;;5076754;28;20078;-62
2021/04/16 13:38:31;;;;;;;5.90;0.77;;;21.30;40.20;;;;;;5093970;28;20061;-66
2021/04/16 13:41:00;;;;;;;4.07;1.02;;;21.40;40.50;;;;;;5092854;28;20032;-61
2021/04/16 13:43:27;;;;;;;6.55;0.80;;;21.40;40.10;;;;;;5094821;28;20101;-63
2021/04/16 13:45:53;;;;;;;6.38;0.90;;;21.40;40.10;;;;;;5094118;28;20032;-62
2021/04/16 13:48:19;;;;;;;14.35;1.20;;;21.50;40.10;;;;;;5095053;28;20036;-61
2021/04/16 13:50:45;;;;;;;4.03;0.75;;;21.50;40.20;;;;;;5095097;28;20032;-62
2021/04/16 13:53:12;;;;;;;12.68;1.17;;;21.50;40.00;;;;;;5093875;28;20035;-63
2021/04/16 13:55:38;;;;;;;7.88;1.88;;;21.40;40.00;;;;;;5094260;28;20354;-63
2021/04/16 13:58:04;;;;;;;3.15;0.90;;;21.40;40.20;;;;;;5093664;28;20032;-62
2021/04/16 14:00:32;;;;;;;4.93;0.90;;;21.50;40.20;;;;;;5094369;28;20036;-65
2021/04/16 14:03:04;;;;;;;6.55;1.42;;;21.40;40.10;;;;;;5093690;28;20852;-63
2021/04/16 14:05:30;;;;;;;5.20;1.55;;;21.40;40.10;;;;;;5094728;28;20073;-63
2021/04/16 14:08:01;;;;;;;2.78;0.70;;;21.40;40.20;;;;;;5093009;28;20043;-62
2021/04/16 14:10:28;;;;;;;3.00;0.90;;;21.40;41.10;;;;;;5094517;28;20358;-64
2021/04/16 14:12:54;;;;;;;5.80;1.33;;;21.50;40.80;;;;;;5094147;28;20124;-61
2021/04/16 14:15:21;;;;;;;3.05;0.90;;;21.50;40.50;;;;;;5094144;28;20488;-62
2021/04/16 14:17:56;;;;;;;3.40;0.68;;;21.50;40.50;;;;;;5094569;28;20043;-62
2021/04/16 14:20:51;;;;;;;3.38;0.60;;;21.40;40.20;;;;;;5094062;28;20043;-61
2021/04/16 14:23:19;;;;;;;8.27;0.73;;;21.40;40.30;;;;;;5072557;28;20358;-62
2021/04/16 14:25:46;;;;;;;3.55;0.45;;;21.40;40.60;;;;;;5094265;28;20032;-62
2021/04/16 14:28:14;;;;;;;7.97;1.02;;;21.30;40.50;;;;;;5093455;28;20047;-61
2021/04/16 14:30:41;;;;;;;4.65;0.80;;;21.30;41.30;;;;;;5092733;28;20031;-62
2021/04/16 14:33:15;;;;;;;5.53;0.80;;;21.20;40.70;;;;;;5093119;28;20496;-61
2021/04/16 14:35:41;;;;;;;2.40;0.73;;;21.20;40.60;;;;;;5093485;28;20058;-62
2021/04/16 14:38:08;;;;;;;2.50;0.70;;;21.20;40.70;;;;;;5091736;28;20066;-62
2021/04/16 14:40:34;;;;;;;2.20;0.60;;;21.20;40.60;;;;;;5094029;28;20028;-62
2021/04/16 14:43:03;;;;;;;3.78;0.77;;;21.20;40.60;;;;;;5092998;28;20084;-61
2021/04/16 14:45:33;;;;;;;3.00;0.63;;;21.10;40.50;;;;;;5094357;28;20150;-62
2021/04/16 14:48:00;;;;;;;1.58;0.60;;;21.20;40.40;;;;;;5092723;28;20043;-63
2021/04/16 14:50:28;;;;;;;1.48;0.60;;;21.20;40.60;;;;;;5093977;28;20396;-62
2021/04/16 14:52:55;;;;;;;0.93;0.52;;;21.20;40.50;;;;;;5093185;28;20067;-64
2021/04/16 14:55:27;;;;;;;8.20;1.00;;;21.10;40.40;;;;;;5091623;28;20032;-61
2021/04/16 14:57:55;;;;;;;;;;;21.20;40.30;;;;;;5093475;28;20367;-62
2021/04/16 15:00:23;;;;;;;3.95;0.70;;;21.20;40.50;;;;;;5093224;28;20008;-64
2021/04/16 15:02:48;;;;;;;1.27;0.50;;;21.20;40.40;;;;;;5092597;28;20095;-63
2021/04/16 15:05:18;;;;;;;1.45;0.57;;;21.30;40.30;;;;;;5092110;28;20292;-64
2021/04/16 15:07:55;;;;;;;2.97;0.75;;;21.30;40.10;;;;;;5092902;28;20486;-62
2021/04/16 15:10:31;;;;;;;1.98;0.70;;;21.40;40.00;;;;;;5092655;28;20055;-62
2021/04/16 15:12:57;;;;;;;7.65;2.35;;;21.30;40.10;;;;;;5091862;28;20106;-62
2021/04/16 15:15:41;;;;;;;0.65;0.47;;;21.30;40.00;;;;;;5093301;28;20041;-63
2021/04/16 15:18:08;;;;;;;1.13;0.47;;;21.30;39.80;;;;;;5092499;28;20040;-61
2021/04/16 15:20:38;;;;;;;4.38;1.10;;;21.20;40.00;;;;;;5092897;28;20028;-64